sensor_id;sensor_type;location;lat;lon;timestamp;pressure;altitude;pressure_sealevel;temperature;humidity
67345;BME280;54230;52.402;6.276;2023-04-15T00:00:00;100950.0;;;9.7;60.8
67345;BME280;54230;52.402;6.276;2023-04-15T00:05:00;100960.0;;;9.6;60.7
67345;BME280;54230;52.402;6.276;2023-04-15T00:10:00;100960.0;;;9.6;62.4
67345;BME280;54230;52.402;6.276;2023-04-15T00:15:00;100950.0;;;9.6;61.4
67345;BME280;54230;52.402;6.276;2023-04-15T00:20:00;100950.0;;;9.5;61.5
67345;BME280;54230;52.402;6.276;2023-04-15T00:25:00;100960.0;;;9.5;62.4
67345;BME280;54230;52.402;6.276;2023-04-15T00:30:00;100960.0;;;9.4;62.2
67345;BME280;54230;52.402;6.276;2023-04-15T00:35:00;100950.0;;;9.4;62.9
67345;BME280;54230;52.402;6.276;2023-04-15T00:40:00;100950.0;;;9.3;62.8
67345;BME280;54230;52.402;6.276;2023-04-15T00:45:00;100960.0;;;9.3;63.3
67345;BME280;54230;52.402;6.276;2023-04-15T00:50:00;100960.0;;;9.3;63.3
67345;BME280;54230;52.402;6.276;2023-04-15T00:55:00;100960.0;;;9.3;64.1
67345;BME280;54230;52.402;6.276;2023-04-15T01:00:00;100960.0;;;9.2;63.6
67345;BME280;54230;52.402;6.276;2023-04-15T01:05:01;100960.0;;;9.1;64.6
67345;BME280;54230;52.402;6.276;2023-04-15T01:10:01;100960.0;;;9.0;64.8
67345;BME280;54230;52.402;6.276;2023-04-15T01:15:00;100960.0;;;8.9;65.3
67345;BME280;54230;52.402;6.276;2023-04-15T01:20:00;100970.0;;;9.2;65.6
67345;BME280;54230;52.402;6.276;2023-04-15T01:25:04;100970.0;;;9.2;65.6
67345;BME280;54230;52.402;6.276;2023-04-15T01:30:00;100970.0;;;9.1;65.7
67345;BME280;54230;52.402;6.276;2023-04-15T01:35:00;100970.0;;;9.2;66.5
67345;BME280;54230;52.402;6.276;2023-04-15T01:40:00;100970.0;;;9.1;65.3
67345;BME280;54230;52.402;6.276;2023-04-15T01:45:00;100970.0;;;8.9;66.0
67345;BME280;54230;52.402;6.276;2023-04-15T01:50:00;100980.0;;;8.8;66.2
67345;BME280;54230;52.402;6.276;2023-04-15T01:55:00;100970.0;;;8.6;66.9
67345;BME280;54230;52.402;6.276;2023-04-15T02:00:00;100980.0;;;8.6;67.5
67345;BME280;54230;52.402;6.276;2023-04-15T02:05:00;100980.0;;;8.6;67.6
67345;BME280;54230;52.402;6.276;2023-04-15T02:10:00;100980.0;;;8.6;68.3
67345;BME280;54230;52.402;6.276;2023-04-15T02:15:00;100990.0;;;8.6;68.6
67345;BME280;54230;52.402;6.276;2023-04-15T02:20:00;100990.0;;;8.6;68.3
67345;BME280;54230;52.402;6.276;2023-04-15T02:25:00;100990.0;;;8.8;69.1
67345;BME280;54230;52.402;6.276;2023-04-15T02:30:00;101000.0;;;8.9;69.3
67345;BME280;54230;52.402;6.276;2023-04-15T02:35:01;101000.0;;;8.9;68.5
67345;BME280;54230;52.402;6.276;2023-04-15T02:40:00;101010.0;;;8.7;68.0
67345;BME280;54230;52.402;6.276;2023-04-15T02:45:00;101010.0;;;8.5;68.7
67345;BME280;54230;52.402;6.276;2023-04-15T02:50:01;101020.0;;;8.4;69.2
67345;BME280;54230;52.402;6.276;2023-04-15T02:55:00;101030.0;;;8.3;69.5
67345;BME280;54230;52.402;6.276;2023-04-15T03:00:00;101020.0;;;8.4;70.2
67345;BME280;54230;52.402;6.276;2023-04-15T03:05:00;101030.0;;;8.5;69.7
67345;BME280;54230;52.402;6.276;2023-04-15T03:10:00;101030.0;;;8.5;70.5
67345;BME280;54230;52.402;6.276;2023-04-15T03:15:00;101030.0;;;8.4;70.3
67345;BME280;54230;52.402;6.276;2023-04-15T03:20:01;101030.0;;;8.4;69.5
67345;BME280;54230;52.402;6.276;2023-04-15T03:25:00;101050.0;;;8.4;70.2
67345;BME280;54230;52.402;6.276;2023-04-15T03:30:00;101050.0;;;8.5;70.8
67345;BME280;54230;52.402;6.276;2023-04-15T03:35:00;101050.0;;;8.4;70.8
67345;BME280;54230;52.402;6.276;2023-04-15T03:40:00;101050.0;;;8.4;71.5
67345;BME280;54230;52.402;6.276;2023-04-15T03:45:00;101060.0;;;8.5;71.7
67345;BME280;54230;52.402;6.276;2023-04-15T03:50:00;101060.0;;;8.4;70.5
67345;BME280;54230;52.402;6.276;2023-04-15T03:55:00;101070.0;;;8.4;71.2
67345;BME280;54230;52.402;6.276;2023-04-15T04:00:00;101070.0;;;8.3;70.7
67345;BME280;54230;52.402;6.276;2023-04-15T04:05:00;101070.0;;;8.0;70.3
67345;BME280;54230;52.402;6.276;2023-04-15T04:10:01;101080.0;;;7.9;71.8
67345;BME280;54230;52.402;6.276;2023-04-15T04:15:00;101080.0;;;8.1;72.7
67345;BME280;54230;52.402;6.276;2023-04-15T04:20:00;101080.0;;;8.1;72.4
67345;BME280;54230;52.402;6.276;2023-04-15T04:25:00;101090.0;;;8.2;72.3
67345;BME280;54230;52.402;6.276;2023-04-15T04:30:00;101100.0;;;8.1;72.5
67345;BME280;54230;52.402;6.276;2023-04-15T04:35:00;101100.0;;;8.1;72.9
67345;BME280;54230;52.402;6.276;2023-04-15T04:40:00;101110.0;;;8.1;72.6
67345;BME280;54230;52.402;6.276;2023-04-15T04:45:00;101120.0;;;8.1;72.9
67345;BME280;54230;52.402;6.276;2023-04-15T04:50:00;101120.0;;;8.1;73.2
67345;BME280;54230;52.402;6.276;2023-04-15T04:55:00;101130.0;;;8.2;73.4
67345;BME280;54230;52.402;6.276;2023-04-15T05:00:00;101130.0;;;8.1;73.1
67345;BME280;54230;52.402;6.276;2023-04-15T05:05:00;101140.0;;;8.2;73.2
67345;BME280;54230;52.402;6.276;2023-04-15T05:10:00;101140.0;;;8.2;73.2
67345;BME280;54230;52.402;6.276;2023-04-15T05:15:00;101150.0;;;8.3;72.6
67345;BME280;54230;52.402;6.276;2023-04-15T05:20:00;101140.0;;;8.3;73.3
67345;BME280;54230;52.402;6.276;2023-04-15T05:25:00;101140.0;;;8.4;73.0
67345;BME280;54230;52.402;6.276;2023-04-15T05:30:00;101150.0;;;8.5;72.8
67345;BME280;54230;52.402;6.276;2023-04-15T05:35:00;101150.0;;;8.5;74.6
67345;BME280;54230;52.402;6.276;2023-04-15T05:40:00;101150.0;;;8.6;76.3
67345;BME280;54230;52.402;6.276;2023-04-15T05:45:00;101160.0;;;8.8;77.6
67345;BME280;54230;52.402;6.276;2023-04-15T05:50:00;101160.0;;;8.9;78.2
67345;BME280;54230;52.402;6.276;2023-04-15T05:55:00;101170.0;;;8.9;78.2
67345;BME280;54230;52.402;6.276;2023-04-15T06:00:00;101180.0;;;9.0;78.5
67345;BME280;54230;52.402;6.276;2023-04-15T06:05:00;101190.0;;;8.9;77.3
67345;BME280;54230;52.402;6.276;2023-04-15T06:10:00;101200.0;;;8.9;77.9
67345;BME280;54230;52.402;6.276;2023-04-15T06:15:01;101210.0;;;9.0;78.5
67345;BME280;54230;52.402;6.276;2023-04-15T06:20:00;101220.0;;;8.9;77.9
67345;BME280;54230;52.402;6.276;2023-04-15T06:25:00;101230.0;;;8.9;78.2
67345;BME280;54230;52.402;6.276;2023-04-15T06:30:00;101230.0;;;9.0;77.5
67345;BME280;54230;52.402;6.276;2023-04-15T06:35:00;101240.0;;;9.0;76.5
67345;BME280;54230;52.402;6.276;2023-04-15T06:40:00;101250.0;;;9.0;76.3
67345;BME280;54230;52.402;6.276;2023-04-15T06:45:00;101260.0;;;9.2;76.2
67345;BME280;54230;52.402;6.276;2023-04-15T06:50:00;101260.0;;;9.1;74.9
67345;BME280;54230;52.402;6.276;2023-04-15T06:55:00;101260.0;;;9.2;74.9
67345;BME280;54230;52.402;6.276;2023-04-15T07:00:01;101260.0;;;9.4;74.4
67345;BME280;54230;52.402;6.276;2023-04-15T07:05:00;101270.0;;;9.6;73.6
67345;BME280;54230;52.402;6.276;2023-04-15T07:10:00;101270.0;;;9.7;73.2
67345;BME280;54230;52.402;6.276;2023-04-15T07:15:00;101280.0;;;9.9;72.5
67345;BME280;54230;52.402;6.276;2023-04-15T07:20:00;101280.0;;;10.2;72.3
67345;BME280;54230;52.402;6.276;2023-04-15T07:25:00;101290.0;;;10.6;71.8
67345;BME280;54230;52.402;6.276;2023-04-15T07:30:00;101290.0;;;10.7;71.1
67345;BME280;54230;52.402;6.276;2023-04-15T07:35:00;101300.0;;;11.1;71.2
67345;BME280;54230;52.402;6.276;2023-04-15T07:40:00;101310.0;;;11.3;70.2
67345;BME280;54230;52.402;6.276;2023-04-15T07:45:00;101310.0;;;11.2;69.3
67345;BME280;54230;52.402;6.276;2023-04-15T07:50:00;101310.0;;;11.3;69.7
67345;BME280;54230;52.402;6.276;2023-04-15T07:55:00;101320.0;;;11.2;69.7
67345;BME280;54230;52.402;6.276;2023-04-15T08:00:00;101320.0;;;11.3;70.0
67345;BME280;54230;52.402;6.276;2023-04-15T08:05:00;101320.0;;;11.2;70.0
67345;BME280;54230;52.402;6.276;2023-04-15T08:10:00;101330.0;;;11.3;70.4
67345;BME280;54230;52.402;6.276;2023-04-15T08:15:00;101330.0;;;11.4;70.1
67345;BME280;54230;52.402;6.276;2023-04-15T08:20:00;101340.0;;;11.4;69.7
67345;BME280;54230;52.402;6.276;2023-04-15T08:25:00;101340.0;;;11.8;69.1
67345;BME280;54230;52.402;6.276;2023-04-15T08:30:00;101340.0;;;12.2;68.2
67345;BME280;54230;52.402;6.276;2023-04-15T08:35:00;101340.0;;;12.5;67.0
67345;BME280;54230;52.402;6.276;2023-04-15T08:40:00;101350.0;;;12.6;66.4
67345;BME280;54230;52.402;6.276;2023-04-15T08:45:03;101350.0;;;12.8;65.2
67345;BME280;54230;52.402;6.276;2023-04-15T08:50:02;101360.0;;;12.8;64.4
67345;BME280;54230;52.402;6.276;2023-04-15T08:55:01;101360.0;;;13.2;63.3
67345;BME280;54230;52.402;6.276;2023-04-15T09:00:01;101360.0;;;13.2;61.4
67345;BME280;54230;52.402;6.276;2023-04-15T09:05:00;101370.0;;;13.3;61.5
67345;BME280;54230;52.402;6.276;2023-04-15T09:10:00;101390.0;;;13.3;60.0
67345;BME280;54230;52.402;6.276;2023-04-15T09:15:01;101370.0;;;13.0;60.4
67345;BME280;54230;52.402;6.276;2023-04-15T09:20:09;101390.0;;;13.2;61.0
67345;BME280;54230;52.402;6.276;2023-04-15T09:25:00;101390.0;;;13.3;59.8
67345;BME280;54230;52.402;6.276;2023-04-15T09:30:00;101400.0;;;13.3;59.2
67345;BME280;54230;52.402;6.276;2023-04-15T09:35:10;101410.0;;;13.7;60.0
67345;BME280;54230;52.402;6.276;2023-04-15T09:40:00;101410.0;;;13.6;58.1
67345;BME280;54230;52.402;6.276;2023-04-15T09:45:07;101420.0;;;13.6;57.9
67345;BME280;54230;52.402;6.276;2023-04-15T09:50:00;101420.0;;;13.7;58.8
67345;BME280;54230;52.402;6.276;2023-04-15T09:55:00;101420.0;;;14.0;58.5
67345;BME280;54230;52.402;6.276;2023-04-15T10:00:01;101430.0;;;13.9;57.9
67345;BME280;54230;52.402;6.276;2023-04-15T10:05:00;101440.0;;;13.8;57.5
67345;BME280;54230;52.402;6.276;2023-04-15T10:10:00;101440.0;;;13.6;58.7
67345;BME280;54230;52.402;6.276;2023-04-15T10:15:03;101440.0;;;13.5;58.5
67345;BME280;54230;52.402;6.276;2023-04-15T10:20:01;101440.0;;;13.7;58.5
67345;BME280;54230;52.402;6.276;2023-04-15T10:25:01;101440.0;;;13.7;57.5
67345;BME280;54230;52.402;6.276;2023-04-15T10:30:00;101440.0;;;13.6;58.0
67345;BME280;54230;52.402;6.276;2023-04-15T10:35:00;101450.0;;;13.9;58.0
67345;BME280;54230;52.402;6.276;2023-04-15T10:40:00;101460.0;;;14.0;56.8
67345;BME280;54230;52.402;6.276;2023-04-15T10:45:00;101450.0;;;14.0;57.2
67345;BME280;54230;52.402;6.276;2023-04-15T10:50:01;101450.0;;;14.4;55.6
67345;BME280;54230;52.402;6.276;2023-04-15T10:55:01;101460.0;;;14.4;55.9
67345;BME280;54230;52.402;6.276;2023-04-15T11:00:08;101470.0;;;14.2;55.3
67345;BME280;54230;52.402;6.276;2023-04-15T11:05:00;101460.0;;;14.4;55.1
67345;BME280;54230;52.402;6.276;2023-04-15T11:10:00;101470.0;;;14.7;55.2
67345;BME280;54230;52.402;6.276;2023-04-15T11:20:00;101480.0;;;13.9;56.5
67345;BME280;54230;52.402;6.276;2023-04-15T11:25:00;101480.0;;;13.9;56.3
67345;BME280;54230;52.402;6.276;2023-04-15T11:30:00;101490.0;;;13.8;57.0
67345;BME280;54230;52.402;6.276;2023-04-15T11:35:00;101490.0;;;13.8;56.9
67345;BME280;54230;52.402;6.276;2023-04-15T11:40:01;101490.0;;;14.2;56.4
67345;BME280;54230;52.402;6.276;2023-04-15T11:45:05;101490.0;;;14.1;56.3
67345;BME280;54230;52.402;6.276;2023-04-15T11:50:14;101500.0;;;14.1;56.4
67345;BME280;54230;52.402;6.276;2023-04-15T11:55:02;101500.0;;;14.0;57.3
67345;BME280;54230;52.402;6.276;2023-04-15T12:00:00;101510.0;;;13.8;57.6
67345;BME280;54230;52.402;6.276;2023-04-15T12:05:02;101500.0;;;13.6;58.3
67345;BME280;54230;52.402;6.276;2023-04-15T12:10:02;101510.0;;;13.9;57.8
67345;BME280;54230;52.402;6.276;2023-04-15T12:15:00;101520.0;;;14.0;57.5
67345;BME280;54230;52.402;6.276;2023-04-15T12:20:00;101540.0;;;13.9;57.0
67345;BME280;54230;52.402;6.276;2023-04-15T12:25:00;101560.0;;;13.9;57.0
67345;BME280;54230;52.402;6.276;2023-04-15T12:30:03;101540.0;;;13.7;56.3
67345;BME280;54230;52.402;6.276;2023-04-15T12:35:00;101550.0;;;13.3;57.5
67345;BME280;54230;52.402;6.276;2023-04-15T12:40:00;101550.0;;;13.4;58.0
67345;BME280;54230;52.402;6.276;2023-04-15T12:45:00;101560.0;;;13.3;58.1
67345;BME280;54230;52.402;6.276;2023-04-15T12:50:00;101570.0;;;13.2;58.4
67345;BME280;54230;52.402;6.276;2023-04-15T12:55:00;101570.0;;;13.2;58.4
67345;BME280;54230;52.402;6.276;2023-04-15T13:00:00;101580.0;;;13.3;58.6
67345;BME280;54230;52.402;6.276;2023-04-15T13:05:00;101580.0;;;13.3;58.9
67345;BME280;54230;52.402;6.276;2023-04-15T13:10:00;101590.0;;;13.2;59.1
67345;BME280;54230;52.402;6.276;2023-04-15T13:15:00;101590.0;;;13.1;58.5
67345;BME280;54230;52.402;6.276;2023-04-15T13:20:00;101600.0;;;13.1;59.6
67345;BME280;54230;52.402;6.276;2023-04-15T13:25:00;101600.0;;;13.2;59.3
67345;BME280;54230;52.402;6.276;2023-04-15T13:30:00;101610.0;;;13.3;58.8
67345;BME280;54230;52.402;6.276;2023-04-15T13:35:00;101610.0;;;13.2;58.4
67345;BME280;54230;52.402;6.276;2023-04-15T13:40:00;101610.0;;;13.0;59.3
67345;BME280;54230;52.402;6.276;2023-04-15T13:45:00;101620.0;;;12.8;59.8
67345;BME280;54230;52.402;6.276;2023-04-15T13:50:00;101630.0;;;12.9;60.6
67345;BME280;54230;52.402;6.276;2023-04-15T13:55:01;101630.0;;;12.9;60.6
67345;BME280;54230;52.402;6.276;2023-04-15T14:00:00;101640.0;;;12.9;60.9
67345;BME280;54230;52.402;6.276;2023-04-15T14:05:00;101640.0;;;12.6;61.4
67345;BME280;54230;52.402;6.276;2023-04-15T14:10:00;101650.0;;;12.8;61.5
67345;BME280;54230;52.402;6.276;2023-04-15T14:15:00;101650.0;;;13.0;61.4
67345;BME280;54230;52.402;6.276;2023-04-15T14:20:00;101670.0;;;12.9;60.7
67345;BME280;54230;52.402;6.276;2023-04-15T14:25:00;101670.0;;;12.7;61.2
67345;BME280;54230;52.402;6.276;2023-04-15T14:30:00;101660.0;;;12.5;62.0
67345;BME280;54230;52.402;6.276;2023-04-15T14:35:00;101670.0;;;12.6;61.8
67345;BME280;54230;52.402;6.276;2023-04-15T14:40:00;101670.0;;;12.9;61.1
67345;BME280;54230;52.402;6.276;2023-04-15T14:45:00;101670.0;;;12.7;61.2
67345;BME280;54230;52.402;6.276;2023-04-15T14:50:00;101690.0;;;12.6;62.0
67345;BME280;54230;52.402;6.276;2023-04-15T14:55:00;101690.0;;;12.6;62.2
67345;BME280;54230;52.402;6.276;2023-04-15T15:00:00;101720.0;;;12.5;62.3
67345;BME280;54230;52.402;6.276;2023-04-15T15:05:01;101720.0;;;12.4;62.7
67345;BME280;54230;52.402;6.276;2023-04-15T15:10:00;101720.0;;;12.5;62.7
67345;BME280;54230;52.402;6.276;2023-04-15T15:15:01;101720.0;;;12.3;63.2
67345;BME280;54230;52.402;6.276;2023-04-15T15:20:00;101730.0;;;12.2;63.8
67345;BME280;54230;52.402;6.276;2023-04-15T15:25:00;101720.0;;;12.1;64.0
67345;BME280;54230;52.402;6.276;2023-04-15T15:30:00;101730.0;;;12.0;64.8
67345;BME280;54230;52.402;6.276;2023-04-15T15:35:00;101740.0;;;11.9;65.1
67345;BME280;54230;52.402;6.276;2023-04-15T15:40:00;101750.0;;;11.9;65.2
67345;BME280;54230;52.402;6.276;2023-04-15T15:45:02;101760.0;;;11.9;66.8
67345;BME280;54230;52.402;6.276;2023-04-15T15:50:00;101760.0;;;12.0;67.2
67345;BME280;54230;52.402;6.276;2023-04-15T15:55:00;101760.0;;;11.9;67.6
67345;BME280;54230;52.402;6.276;2023-04-15T16:00:00;101770.0;;;11.9;68.3
67345;BME280;54230;52.402;6.276;2023-04-15T16:05:00;101770.0;;;12.0;68.4
67345;BME280;54230;52.402;6.276;2023-04-15T16:10:00;101770.0;;;12.6;67.6
67345;BME280;54230;52.402;6.276;2023-04-15T16:15:00;101770.0;;;12.8;65.8
67345;BME280;54230;52.402;6.276;2023-04-15T16:20:00;101780.0;;;12.8;65.9
67345;BME280;54230;52.402;6.276;2023-04-15T16:25:00;101780.0;;;12.6;65.6
67345;BME280;54230;52.402;6.276;2023-04-15T16:30:00;101790.0;;;12.4;66.5
67345;BME280;54230;52.402;6.276;2023-04-15T16:35:01;101800.0;;;12.1;67.4
67345;BME280;54230;52.402;6.276;2023-04-15T16:40:00;101800.0;;;11.7;69.1
67345;BME280;54230;52.402;6.276;2023-04-15T16:45:00;101810.0;;;11.7;70.1
67345;BME280;54230;52.402;6.276;2023-04-15T16:50:00;101810.0;;;11.6;70.4
67345;BME280;54230;52.402;6.276;2023-04-15T16:55:00;101810.0;;;11.5;70.8
67345;BME280;54230;52.402;6.276;2023-04-15T17:00:00;101820.0;;;11.6;71.0
67345;BME280;54230;52.402;6.276;2023-04-15T17:05:00;101820.0;;;11.4;70.4
67345;BME280;54230;52.402;6.276;2023-04-15T17:10:00;101830.0;;;11.1;71.0
67345;BME280;54230;52.402;6.276;2023-04-15T17:15:00;101830.0;;;11.2;71.3
67345;BME280;54230;52.402;6.276;2023-04-15T17:20:00;101840.0;;;11.4;71.1
67345;BME280;54230;52.402;6.276;2023-04-15T17:25:00;101850.0;;;11.2;70.9
67345;BME280;54230;52.402;6.276;2023-04-15T17:30:00;101850.0;;;11.1;71.8
67345;BME280;54230;52.402;6.276;2023-04-15T17:35:02;101850.0;;;11.0;71.6
67345;BME280;54230;52.402;6.276;2023-04-15T17:40:00;101860.0;;;10.8;72.6
67345;BME280;54230;52.402;6.276;2023-04-15T17:45:00;101860.0;;;10.8;72.9
67345;BME280;54230;52.402;6.276;2023-04-15T17:50:00;101860.0;;;10.6;73.8
67345;BME280;54230;52.402;6.276;2023-04-15T17:55:00;101880.0;;;9.9;77.7
67345;BME280;54230;52.402;6.276;2023-04-15T18:00:00;101890.0;;;9.7;80.3
67345;BME280;54230;52.402;6.276;2023-04-15T18:05:00;101890.0;;;9.6;82.0
67345;BME280;54230;52.402;6.276;2023-04-15T18:10:00;101900.0;;;9.6;82.8
67345;BME280;54230;52.402;6.276;2023-04-15T18:15:00;101900.0;;;9.6;82.7
67345;BME280;54230;52.402;6.276;2023-04-15T18:20:00;101900.0;;;9.6;82.8
67345;BME280;54230;52.402;6.276;2023-04-15T18:25:00;101910.0;;;9.6;82.5
67345;BME280;54230;52.402;6.276;2023-04-15T18:30:00;101920.0;;;9.6;82.1
67345;BME280;54230;52.402;6.276;2023-04-15T18:35:01;101940.0;;;9.7;81.9
67345;BME280;54230;52.402;6.276;2023-04-15T18:40:00;101930.0;;;9.7;81.6
67345;BME280;54230;52.402;6.276;2023-04-15T18:45:00;101950.0;;;9.7;81.4
67345;BME280;54230;52.402;6.276;2023-04-15T18:50:00;101970.0;;;9.6;82.2
67345;BME280;54230;52.402;6.276;2023-04-15T18:55:01;101960.0;;;9.6;82.4
67345;BME280;54230;52.402;6.276;2023-04-15T19:00:00;101960.0;;;9.5;83.1
67345;BME280;54230;52.402;6.276;2023-04-15T19:05:00;101970.0;;;9.6;83.4
67345;BME280;54230;52.402;6.276;2023-04-15T19:10:01;101970.0;;;9.7;83.3
67345;BME280;54230;52.402;6.276;2023-04-15T19:15:00;101990.0;;;9.8;83.1
67345;BME280;54230;52.402;6.276;2023-04-15T19:20:00;101980.0;;;9.9;82.7
67345;BME280;54230;52.402;6.276;2023-04-15T19:25:00;101980.0;;;9.6;83.6
67345;BME280;54230;52.402;6.276;2023-04-15T19:30:00;101980.0;;;9.6;84.0
67345;BME280;54230;52.402;6.276;2023-04-15T19:35:00;101980.0;;;9.7;83.9
67345;BME280;54230;52.402;6.276;2023-04-15T19:40:00;101980.0;;;9.6;84.4
67345;BME280;54230;52.402;6.276;2023-04-15T19:45:00;101970.0;;;9.6;84.5
67345;BME280;54230;52.402;6.276;2023-04-15T19:50:00;101980.0;;;9.7;84.4
67345;BME280;54230;52.402;6.276;2023-04-15T19:55:00;101990.0;;;9.8;84.0
67345;BME280;54230;52.402;6.276;2023-04-15T20:00:00;101990.0;;;9.8;83.7
67345;BME280;54230;52.402;6.276;2023-04-15T20:05:00;102000.0;;;9.9;83.8
67345;BME280;54230;52.402;6.276;2023-04-15T20:10:00;102010.0;;;9.9;83.5
67345;BME280;54230;52.402;6.276;2023-04-15T20:15:00;102000.0;;;10.0;83.2
67345;BME280;54230;52.402;6.276;2023-04-15T20:20:00;102000.0;;;10.0;83.1
67345;BME280;54230;52.402;6.276;2023-04-15T20:25:01;102010.0;;;10.1;82.8
67345;BME280;54230;52.402;6.276;2023-04-15T20:30:00;102010.0;;;10.1;82.7
67345;BME280;54230;52.402;6.276;2023-04-15T20:35:00;102000.0;;;10.2;82.5
67345;BME280;54230;52.402;6.276;2023-04-15T20:40:00;101990.0;;;10.2;82.3
67345;BME280;54230;52.402;6.276;2023-04-15T20:45:00;101990.0;;;10.1;82.4
67345;BME280;54230;52.402;6.276;2023-04-15T20:50:00;102000.0;;;10.1;82.5
67345;BME280;54230;52.402;6.276;2023-04-15T20:55:00;102010.0;;;10.1;82.8
67345;BME280;54230;52.402;6.276;2023-04-15T21:00:00;102010.0;;;10.1;82.9
67345;BME280;54230;52.402;6.276;2023-04-15T21:05:00;102010.0;;;10.2;82.7
67345;BME280;54230;52.402;6.276;2023-04-15T21:10:00;102030.0;;;10.2;82.5
67345;BME280;54230;52.402;6.276;2023-04-15T21:15:00;102030.0;;;10.2;82.7
67345;BME280;54230;52.402;6.276;2023-04-15T21:20:00;102020.0;;;10.1;83.1
67345;BME280;54230;52.402;6.276;2023-04-15T21:25:00;102040.0;;;10.1;83.3
67345;BME280;54230;52.402;6.276;2023-04-15T21:30:00;102040.0;;;10.1;83.6
67345;BME280;54230;52.402;6.276;2023-04-15T21:35:00;102040.0;;;10.2;83.4
67345;BME280;54230;52.402;6.276;2023-04-15T21:40:00;102040.0;;;10.2;83.5
67345;BME280;54230;52.402;6.276;2023-04-15T21:45:00;102050.0;;;10.4;83.5
67345;BME280;54230;52.402;6.276;2023-04-15T21:50:00;102050.0;;;10.3;83.6
67345;BME280;54230;52.402;6.276;2023-04-15T21:55:00;102070.0;;;10.3;83.8
67345;BME280;54230;52.402;6.276;2023-04-15T22:00:00;102070.0;;;10.3;84.0
67345;BME280;54230;52.402;6.276;2023-04-15T22:05:00;102060.0;;;10.3;84.4
67345;BME280;54230;52.402;6.276;2023-04-15T22:10:00;102060.0;;;10.4;84.4
67345;BME280;54230;52.402;6.276;2023-04-15T22:15:00;102070.0;;;10.3;84.4
67345;BME280;54230;52.402;6.276;2023-04-15T22:20:00;102060.0;;;10.3;84.9
67345;BME280;54230;52.402;6.276;2023-04-15T22:25:00;102070.0;;;10.4;85.1
67345;BME280;54230;52.402;6.276;2023-04-15T22:30:00;102070.0;;;10.4;85.3
67345;BME280;54230;52.402;6.276;2023-04-15T22:35:00;102070.0;;;10.5;85.2
67345;BME280;54230;52.402;6.276;2023-04-15T22:40:00;102070.0;;;10.5;85.2
67345;BME280;54230;52.402;6.276;2023-04-15T22:45:00;102070.0;;;10.5;85.3
67345;BME280;54230;52.402;6.276;2023-04-15T22:50:00;102080.0;;;10.6;85.5
67345;BME280;54230;52.402;6.276;2023-04-15T22:55:00;102090.0;;;10.6;85.3
67345;BME280;54230;52.402;6.276;2023-04-15T23:00:00;102090.0;;;10.5;85.8
67345;BME280;54230;52.402;6.276;2023-04-15T23:05:00;102100.0;;;10.5;86.1
67345;BME280;54230;52.402;6.276;2023-04-15T23:10:00;102100.0;;;10.5;86.2
67345;BME280;54230;52.402;6.276;2023-04-15T23:15:00;102110.0;;;10.5;86.3
67345;BME280;54230;52.402;6.276;2023-04-15T23:20:00;102110.0;;;10.5;86.7
67345;BME280;54230;52.402;6.276;2023-04-15T23:25:00;102110.0;;;10.5;86.6
67345;BME280;54230;52.402;6.276;2023-04-15T23:30:00;102110.0;;;10.5;86.7
67345;BME280;54230;52.402;6.276;2023-04-15T23:35:00;102110.0;;;10.4;87.1
67345;BME280;54230;52.402;6.276;2023-04-15T23:40:00;102110.0;;;10.5;87.1
67345;BME280;54230;52.402;6.276;2023-04-15T23:45:00;102110.0;;;10.4;87.4
67345;BME280;54230;52.402;6.276;2023-04-15T23:50:00;102120.0;;;10.4;87.9
67345;BME280;54230;52.402;6.276;2023-04-15T23:55:00;102130.0;;;10.3;88.4
